Time;durP1;ratioP1;P1;durP2;ratioP2;P2;SDS_P1;SDS_P2;PMS_P1;PMS_P2;Temp;Humidity;BMP_temperature;BMP_pressure;BME280_temperature;BME280_humidity;BME280_pressure;Samples;Min_cycle;Max_cycle;Signal;HPM_P1;HPM_P2
2024/01/10 00:00:19;;;;;;;17.57;11.00;;;-0.10;63.30;-2.40;96981.00;;;;5075315;28;20500;-76
2024/01/10 00:02:46;;;;;;;20.50;12.23;;;-0.10;63.30;-2.50;96989.00;;;;5076925;28;20470;-75
2024/01/10 00:05:13;;;;;;;16.50;11.03;;;-0.10;63.40;-2.50;96992.00;;;;5072828;28;20537;-75
2024/01/10 00:07:40;;;;;;;21.73;12.17;;;-0.10;63.40;-2.50;96988.00;;;;5072882;28;20451;-76
2024/01/10 00:10:10;;;;;;;18.03;11.70;;;-0.10;63.30;-2.60;96993.00;;;;5074426;28;20929;-75
2024/01/10 00:12:38;;;;;;;18.43;11.93;;;-0.20;63.20;-2.60;96987.00;;;;5079170;28;20443;-76
2024/01/10 00:15:06;;;;;;;21.57;12.13;;;-0.20;63.20;-2.60;96993.00;;;;5073498;28;20445;-75
2024/01/10 00:17:34;;;;;;;18.87;11.03;;;-0.20;63.40;-2.60;96992.00;;;;5078623;28;20468;-75
2024/01/10 00:20:01;;;;;;;19.73;11.40;;;-0.30;63.40;-2.70;96991.00;;;;5077260;28;21009;-75
2024/01/10 00:22:28;;;;;;;17.53;11.10;;;-0.30;63.50;-2.70;96988.00;;;;5071284;28;20477;-75
2024/01/10 00:24:55;;;;;;;20.50;12.13;;;-0.30;63.50;-2.70;96992.00;;;;5079047;28;20439;-75
2024/01/10 00:27:24;;;;;;;22.43;12.17;;;-0.30;63.70;-2.70;96992.00;;;;5071639;28;20785;-76
2024/01/10 00:29:52;;;;;;;19.37;12.17;;;-0.40;64.50;-2.70;96980.00;;;;5075404;28;20472;-76
2024/01/10 00:32:19;;;;;;;19.17;11.10;;;-0.40;64.20;-2.70;96967.00;;;;5076950;28;20450;-75
2024/01/10 00:34:46;;;;;;;17.93;11.10;;;-0.40;64.10;-2.70;96983.00;;;;5079834;28;20481;-77
2024/01/10 00:37:13;;;;;;;18.03;11.37;;;-0.40;64.40;-2.60;96979.00;;;;5074414;28;20481;-77
2024/01/10 00:39:40;;;;;;;19.83;11.70;;;-0.30;64.70;-2.60;96987.00;;;;5073834;28;20573;-78
2024/01/10 00:42:08;;;;;;;17.37;10.73;;;-0.30;64.80;-2.60;96978.00;;;;5079827;28;20473;-76
2024/01/10 00:44:36;;;;;;;17.90;11.63;;;-0.30;64.70;-2.60;96990.00;;;;5073590;28;20529;-76
2024/01/10 00:47:04;;;;;;;18.23;11.47;;;-0.30;64.60;-2.50;96979.00;;;;5080448;28;20955;-76
2024/01/10 00:49:31;;;;;;;18.23;11.10;;;-0.30;64.70;-2.50;96985.00;;;;5074784;28;20460;-75
2024/01/10 00:51:59;;;;;;;17.90;11.93;;;-0.20;64.60;-2.50;96975.00;;;;5071492;28;20461;-75
2024/01/10 00:54:26;;;;;;;20.67;11.93;;;-0.20;64.80;-2.50;96982.00;;;;5071807;28;20571;-76
2024/01/10 00:56:53;;;;;;;18.13;11.53;;;-0.20;64.80;-2.50;96987.00;;;;5079574;28;20434;-76
2024/01/10 00:59:20;;;;;;;20.77;12.00;;;-0.20;64.90;-2.50;96985.00;;;;5076192;28;20462;-76
2024/01/10 01:01:49;;;;;;;19.67;11.60;;;-0.20;65.00;-2.50;96980.00;;;;5076483;28;20462;-76
2024/01/10 01:04:16;;;;;;;18.87;11.90;;;-0.20;65.10;-2.40;96991.00;;;;5072830;28;20499;-76
2024/01/10 01:06:44;;;;;;;19.47;12.13;;;-0.20;64.90;-2.40;96984.00;;;;5071572;28;20537;-76
2024/01/10 01:09:12;;;;;;;17.87;12.03;;;-0.20;65.00;-2.40;96991.00;;;;5071945;28;20858;-77
2024/01/10 01:11:39;;;;;;;20.50;12.50;;;-0.10;65.10;-2.40;96986.00;;;;5071476;28;20460;-76
2024/01/10 01:14:07;;;;;;;20.90;12.10;;;-0.10;65.20;-2.40;96986.00;;;;5075110;28;20474;-76
2024/01/10 01:16:34;;;;;;;20.20;11.93;;;-0.10;65.20;-2.40;96989.00;;;;5059617;28;20446;-76
2024/01/10 01:19:03;;;;;;;20.70;12.37;;;-0.10;65.30;-2.30;96990.00;;;;5074392;28;20935;-75
2024/01/10 01:21:30;;;;;;;20.43;12.23;;;-0.10;65.30;-2.30;96996.00;;;;5070405;28;20502;-75
2024/01/10 01:23:58;;;;;;;22.07;12.80;;;-0.10;65.30;-2.30;96997.00;;;;5075253;28;20913;-75
2024/01/10 01:26:25;;;;;;;21.77;12.23;;;-0.10;65.20;-2.30;97003.00;;;;5067061;28;20490;-75
2024/01/10 01:28:52;;;;;;;19.77;11.87;;;0.00;65.30;-2.30;97004.00;;;;5072641;28;20458;-75
2024/01/10 01:31:19;;;;;;;18.87;11.77;;;0.00;65.30;-2.30;97006.00;;;;5071131;28;20469;-75
2024/01/10 01:33:47;;;;;;;22.13;12.00;;;0.00;65.30;-2.30;97006.00;;;;5070386;28;20474;-75
2024/01/10 01:36:16;;;;;;;18.27;12.07;;;0.00;65.40;-2.30;97011.00;;;;5077070;28;20473;-75
2024/01/10 01:38:43;;;;;;;22.80;12.97;;;0.00;65.40;-2.30;97015.00;;;;5072530;28;20497;-76
2024/01/10 01:41:11;;;;;;;20.20;12.90;;;0.00;65.30;-2.30;97017.00;;;;5071159;28;20540;-76
2024/01/10 01:43:38;;;;;;;22.00;12.90;;;0.00;65.00;-2.30;97012.00;;;;5070056;28;20963;-75
2024/01/10 01:46:06;;;;;;;21.30;12.70;;;0.00;65.10;-2.30;97013.00;;;;5071963;28;20950;-76
2024/01/10 01:48:33;;;;;;;20.13;11.80;;;0.00;65.20;-2.30;97009.00;;;;5079008;28;20494;-75
2024/01/10 01:51:05;;;;;;;20.67;12.70;;;0.00;65.20;-2.30;97013.00;;;;5073539;28;20474;-76
2024/01/10 01:53:35;;;;;;;20.63;12.00;;;0.00;65.10;-2.30;97010.00;;;;5071754;28;20450;-75
2024/01/10 01:56:08;;;;;;;18.57;12.23;;;0.00;65.00;-2.30;97013.00;;;;5078364;28;20465;-76
2024/01/10 01:58:37;;;;;;;19.17;11.67;;;0.00;65.00;-2.30;97018.00;;;;5065044;28;20528;-76
2024/01/10 02:01:06;;;;;;;18.17;12.00;;;0.00;65.10;-2.30;97014.00;;;;5079360;28;20438;-76
2024/01/10 02:03:34;;;;;;;22.43;14.10;;;0.00;64.90;-2.30;97013.00;;;;5071159;28;20462;-76
2024/01/10 02:06:03;;;;;;;21.50;12.30;;;0.00;64.70;-2.30;97014.00;;;;5078478;28;21094;-76
2024/01/10 02:08:31;;;;;;;19.77;12.70;;;0.00;65.00;-2.30;97007.00;;;;5061587;28;20465;-75
2024/01/10 02:11:00;;;;;;;20.37;12.20;;;0.00;64.60;-2.30;97019.00;;;;5068746;28;20445;-75
2024/01/10 02:13:28;;;;;;;21.17;12.33;;;0.00;64.70;-2.30;97012.00;;;;5068244;28;21028;-76
2024/01/10 02:15:56;;;;;;;20.37;12.30;;;0.00;64.60;-2.30;97006.00;;;;5070123;28;20548;-75
2024/01/10 02:18:23;;;;;;;23.30;12.90;;;0.00;64.60;-2.30;97015.00;;;;5075658;28;20556;-75
2024/01/10 02:20:51;;;;;;;21.03;12.53;;;0.00;64.60;-2.30;97011.00;;;;5073096;28;20491;-75
2024/01/10 02:23:19;;;;;;;23.07;13.00;;;0.00;64.60;-2.30;97016.00;;;;5076109;28;20461;-75
2024/01/10 02:25:47;;;;;;;21.87;13.40;;;0.00;64.70;-2.30;97016.00;;;;5073379;28;20563;-75
2024/01/10 02:28:15;;;;;;;19.87;12.17;;;0.00;64.50;-2.40;97016.00;;;;5070593;28;20488;-76
2024/01/10 02:30:42;;;;;;;20.23;12.00;;;-0.10;64.50;-2.40;97009.00;;;;5070479;28;21023;-76
2024/01/10 02:33:09;;;;;;;21.33;12.27;;;-0.10;64.50;-2.40;97014.00;;;;5070877;28;20478;-75
2024/01/10 02:35:37;;;;;;;20.40;13.30;;;-0.10;64.50;-2.40;97013.00;;;;5074932;28;20465;-75
2024/01/10 02:38:05;;;;;;;18.87;12.63;;;-0.10;64.50;-2.30;97025.00;;;;5073866;28;20517;-76
2024/01/10 02:40:32;;;;;;;22.13;13.73;;;-0.10;64.60;-2.40;97021.00;;;;5074228;28;20537;-76
2024/01/10 02:43:00;;;;;;;22.47;12.57;;;-0.10;64.50;-2.40;97022.00;;;;5083768;28;20461;-76
2024/01/10 02:45:27;;;;;;;24.87;13.50;;;-0.10;64.50;-2.40;97019.00;;;;5071442;28;20451;-76
2024/01/10 02:47:54;;;;;;;21.17;12.90;;;-0.10;64.40;-2.40;97012.00;;;;5073380;28;20610;-76
2024/01/10 02:50:21;;;;;;;22.27;13.80;;;-0.10;64.40;-2.40;97006.00;;;;5071014;28;20545;-76
2024/01/10 02:52:48;;;;;;;21.70;12.20;;;-0.10;64.50;-2.50;97003.00;;;;5071215;28;20518;-76
2024/01/10 02:55:16;;;;;;;22.50;13.63;;;-0.20;64.60;-2.50;97001.00;;;;5072189;28;20442;-76
2024/01/10 02:57:43;;;;;;;24.60;14.23;;;-0.20;64.90;-2.50;97000.00;;;;5077065;28;20450;-76
2024/01/10 03:00:15;;;;;;;22.17;13.27;;;-0.20;64.60;-2.50;97006.00;;;;5077439;28;20493;-76
2024/01/10 03:02:42;;;;;;;22.03;12.80;;;-0.20;64.40;-2.50;97000.00;;;;5073980;28;21102;-76
2024/01/10 03:05:09;;;;;;;23.50;13.97;;;-0.20;64.40;-2.50;97006.00;;;;5074901;28;20474;-76
2024/01/10 03:07:36;;;;;;;25.30;13.57;;;-0.20;64.60;-2.50;97006.00;;;;5074879;28;20466;-76
2024/01/10 03:10:04;;;;;;;20.53;12.77;;;-0.20;64.70;-2.50;97002.00;;;;5074376;28;20552;-76
2024/01/10 03:12:32;;;;;;;24.23;14.07;;;-0.20;64.70;-2.60;97010.00;;;;5074016;28;21020;-75
2024/01/10 03:15:00;;;;;;;24.23;13.97;;;-0.30;64.70;-2.60;96991.00;;;;5073313;28;20438;-76
2024/01/10 03:17:29;;;;;;;26.00;13.93;;;-0.30;64.70;-2.60;96999.00;;;;5072819;28;20529;-76
2024/01/10 03:19:56;;;;;;;21.30;13.07;;;-0.30;64.70;-2.60;96992.00;;;;5073090;28;20481;-76
2024/01/10 03:22:23;;;;;;;23.53;13.47;;;-0.30;64.80;-2.70;96999.00;;;;5078135;28;21064;-76
2024/01/10 03:24:50;;;;;;;21.57;13.03;;;-0.30;64.70;-2.70;96985.00;;;;5073222;28;20450;-76
2024/01/10 03:27:17;;;;;;;22.33;13.10;;;-0.30;64.60;-2.70;96985.00;;;;5081163;28;20486;-76
2024/01/10 03:29:44;;;;;;;24.10;13.40;;;-0.40;64.70;-2.70;96972.00;;;;5074461;28;20504;-76
2024/01/10 03:32:12;;;;;;;24.47;15.03;;;-0.40;64.90;-2.80;96984.00;;;;5074319;28;20980;-76
2024/01/10 03:34:42;;;;;;;23.70;13.93;;;-0.40;65.00;-2.80;96983.00;;;;5081358;28;20821;-76
2024/01/10 03:37:09;;;;;;;23.97;13.10;;;-0.40;65.60;-2.80;96983.00;;;;5079665;28;20465;-76
2024/01/10 03:39:36;;;;;;;21.70;14.03;;;-0.40;64.90;-2.80;96980.00;;;;5078226;28;20462;-76
2024/01/10 03:42:04;;;;;;;21.90;13.73;;;-0.50;64.90;-2.90;96983.00;;;;5074205;28;20517;-76
2024/01/10 03:44:31;;;;;;;24.50;13.87;;;-0.50;64.80;-2.90;96989.00;;;;5079604;28;20445;-76
2024/01/10 03:46:59;;;;;;;23.13;13.53;;;-0.50;64.80;-2.90;96980.00;;;;5074315;28;20521;-76
2024/01/10 03:49:26;;;;;;;23.90;13.90;;;-0.60;64.90;-2.90;96986.00;;;;5074667;28;20470;-76
2024/01/10 03:51:54;;;;;;;20.00;12.93;;;-0.50;65.00;-3.00;96983.00;;;;5074254;28;20998;-76
2024/01/10 03:54:21;;;;;;;22.10;13.13;;;-0.60;64.80;-3.00;96989.00;;;;5078896;28;21025;-76
2024/01/10 03:56:49;;;;;;;20.77;13.33;;;-0.60;65.00;-3.00;96986.00;;;;5073198;28;20530;-76
2024/01/10 03:59:16;;;;;;;26.13;14.97;;;-0.60;65.10;-3.00;96983.00;;;;5073814;28;20523;-76
2024/01/10 04:01:43;;;;;;;25.17;14.83;;;-0.70;65.10;-3.00;96980.00;;;;5073865;28;20943;-76
2024/01/10 04:04:10;;;;;;;21.67;12.87;;;-0.60;65.20;-3.00;96978.00;;;;5072854;28;20531;-76
2024/01/10 04:06:37;;;;;;;24.33;14.07;;;-0.60;65.30;-3.00;96977.00;;;;5078289;28;20473;-76
2024/01/10 04:09:08;;;;;;;23.50;12.83;;;-0.60;65.50;-2.90;96963.00;;;;5071934;28;20484;-76
2024/01/10 04:11:35;;;;;;;27.20;14.63;;;-0.60;65.60;-2.90;96970.00;;;;5076762;28;20791;-76
2024/01/10 04:14:03;;;;;;;22.10;13.63;;;-0.50;65.90;-2.90;96966.00;;;;5072231;28;20489;-76
2024/01/10 04:16:31;;;;;;;25.27;14.67;;;-0.50;66.00;-2.80;96966.00;;;;5077160;28;20434;-76
2024/01/10 04:18:58;;;;;;;26.23;14.23;;;-0.50;66.10;-2.80;96969.00;;;;5077934;28;20494;-76
2024/01/10 04:21:25;;;;;;;23.53;14.57;;;-0.50;66.40;-2.70;96979.00;;;;5072602;28;20466;-76
2024/01/10 04:23:52;;;;;;;28.17;15.33;;;-0.40;66.50;-2.60;96978.00;;;;5073117;28;20555;-76
2024/01/10 04:26:21;;;;;;;27.70;14.83;;;-0.40;66.60;-2.60;96970.00;;;;5065736;28;20462;-76
2024/01/10 04:28:48;;;;;;;30.73;15.50;;;-0.30;66.70;-2.50;96978.00;;;;5073486;28;20482;-76
2024/01/10 04:31:16;;;;;;;26.70;14.53;;;-0.30;66.80;-2.50;96976.00;;;;5077519;28;20929;-76
2024/01/10 04:33:43;;;;;;;25.20;14.53;;;-0.20;66.80;-2.50;96977.00;;;;5073485;28;20473;-76
2024/01/10 04:36:10;;;;;;;27.50;15.20;;;-0.20;66.90;-2.40;96987.00;;;;5078982;28;20430;-76
2024/01/10 04:38:38;;;;;;;24.53;14.37;;;-0.20;66.90;-2.40;96983.00;;;;5070877;28;20486;-76
2024/01/10 04:41:05;;;;;;;30.07;15.27;;;-0.10;66.90;-2.30;96984.00;;;;5077327;28;20879;-76
2024/01/10 04:43:34;;;;;;;26.43;14.63;;;-0.10;67.00;-2.20;96987.00;;;;5078911;28;20477;-76
2024/01/10 04:46:01;;;;;;;24.30;14.30;;;0.00;67.00;-2.20;96978.00;;;;5073106;28;20439;-75
2024/01/10 04:48:28;;;;;;;22.83;13.90;;;0.00;67.00;-2.10;96972.00;;;;5071856;28;20463;-76
2024/01/10 04:50:55;;;;;;;23.23;13.97;;;0.10;67.10;-2.10;96981.00;;;;5071996;28;20880;-76
2024/01/10 04:53:23;;;;;;;26.80;15.07;;;0.10;67.10;-2.00;96981.00;;;;5073254;28;21673;-76
2024/01/10 04:55:50;;;;;;;26.97;15.47;;;0.20;67.20;-2.00;96984.00;;;;5062390;28;20846;-76
2024/01/10 04:58:17;;;;;;;28.70;15.67;;;0.30;67.30;-1.90;96990.00;;;;5072733;28;20473;-76
2024/01/10 05:00:46;;;;;;;26.90;14.80;;;0.30;67.40;-1.90;96992.00;;;;5072657;28;20491;-76
2024/01/10 05:03:14;;;;;;;24.17;14.33;;;0.30;67.40;-1.80;96993.00;;;;5072676;28;20496;-75
2024/01/10 05:05:41;;;;;;;25.37;14.97;;;0.30;67.50;-1.70;96990.00;;;;5072518;28;20880;-76
2024/01/10 05:08:09;;;;;;;25.90;13.70;;;0.40;67.50;-1.70;96992.00;;;;5071066;28;20474;-76
2024/01/10 05:10:36;;;;;;;30.03;15.57;;;0.50;67.50;-1.60;96998.00;;;;5076624;28;20535;-77
2024/01/10 05:13:04;;;;;;;25.47;14.77;;;0.50;68.20;-1.60;97000.00;;;;5071117;28;20731;-76
2024/01/10 05:15:31;;;;;;;24.60;14.20;;;0.60;67.40;-1.50;97001.00;;;;5077065;28;20466;-76
2024/01/10 05:18:00;;;;;;;25.63;14.17;;;0.60;68.10;-1.50;97006.00;;;;5078986;28;20532;-76
2024/01/10 05:20:27;;;;;;;26.67;14.43;;;0.70;67.50;-1.40;97008.00;;;;5079129;28;20469;-76
2024/01/10 05:22:58;;;;;;;24.17;13.57;;;0.70;67.40;-1.40;97006.00;;;;5071369;28;20560;-76
2024/01/10 05:25:27;;;;;;;23.20;13.37;;;0.80;67.30;-1.40;97011.00;;;;5072198;28;20636;-77
2024/01/10 05:27:54;;;;;;;25.73;14.20;;;0.80;67.10;-1.40;97008.00;;;;5069436;28;20450;-76
2024/01/10 05:30:21;;;;;;;25.90;14.60;;;0.80;67.00;-1.40;97011.00;;;;5076986;28;20552;-76
2024/01/10 05:32:48;;;;;;;28.83;14.40;;;0.80;67.00;-1.30;97016.00;;;;5071988;28;20446;-76
2024/01/10 05:35:17;;;;;;;29.50;14.47;;;0.90;67.10;-1.30;97014.00;;;;5074349;28;20464;-77
2024/01/10 05:37:45;;;;;;;28.33;14.80;;;0.90;67.90;-1.30;97028.00;;;;5072640;28;20445;-76
2024/01/10 05:40:13;;;;;;;24.27;13.83;;;0.90;67.20;-1.30;97018.00;;;;5070252;28;20470;-77
2024/01/10 05:42:40;;;;;;;24.43;13.50;;;0.90;66.90;-1.30;97023.00;;;;5076140;28;20446;-76
2024/01/10 05:45:09;;;;;;;23.77;13.30;;;0.90;66.90;-1.30;97037.00;;;;5072570;28;20477;-76
2024/01/10 05:47:36;;;;;;;24.67;13.77;;;0.90;66.90;-1.30;97027.00;;;;5071988;28;20866;-77
2024/01/10 05:50:06;;;;;;;27.33;14.60;;;1.00;67.00;-1.30;97034.00;;;;5072027;28;20466;-76
2024/01/10 05:52:34;;;;;;;26.67;14.20;;;1.00;67.10;-1.30;97028.00;;;;5071465;28;20873;-76
2024/01/10 05:55:03;;;;;;;27.50;14.63;;;1.00;67.00;-1.30;97031.00;;;;5074560;28;20863;-76
2024/01/10 05:57:32;;;;;;;26.87;13.63;;;1.00;67.00;-1.30;97025.00;;;;5077741;28;20445;-77
2024/01/10 05:59:59;;;;;;;24.77;12.97;;;1.00;67.00;-1.20;97018.00;;;;5074078;28;20492;-76
2024/01/10 06:02:26;;;;;;;29.00;14.83;;;1.00;67.10;-1.20;97027.00;;;;5068409;28;20480;-76
2024/01/10 06:04:54;;;;;;;28.10;14.77;;;1.00;67.30;-1.20;97013.00;;;;5073735;28;20470;-76
2024/01/10 06:07:22;;;;;;;25.23;14.27;;;1.00;67.40;-1.10;97026.00;;;;5068768;28;20504;-76
2024/01/10 06:09:51;;;;;;;26.83;14.67;;;1.10;67.40;-1.10;97024.00;;;;5070075;28;21063;-76
2024/01/10 06:12:18;;;;;;;23.00;13.07;;;1.10;67.50;-1.10;97029.00;;;;5069688;28;20446;-76
2024/01/10 06:14:45;;;;;;;25.47;14.27;;;1.10;67.30;-1.10;97027.00;;;;5070054;28;20474;-77
2024/01/10 06:17:12;;;;;;;26.23;14.57;;;1.10;67.10;-1.10;97023.00;;;;5071489;28;20478;-76
2024/01/10 06:19:40;;;;;;;25.13;13.67;;;1.10;67.00;-1.10;97019.00;;;;5073895;28;20489;-76
2024/01/10 06:22:07;;;;;;;27.27;14.20;;;1.10;67.00;-1.10;97024.00;;;;5071415;28;20450;-76
2024/01/10 06:24:34;;;;;;;27.33;14.23;;;1.10;67.00;-1.10;97031.00;;;;5072686;28;20891;-76
2024/01/10 06:27:03;;;;;;;27.40;14.30;;;1.20;67.00;-1.10;97029.00;;;;5071425;28;20962;-77
2024/01/10 06:29:30;;;;;;;27.03;14.67;;;1.20;67.00;-1.10;97029.00;;;;5071554;28;20462;-76
2024/01/10 06:31:58;;;;;;;24.63;13.73;;;1.20;67.10;-1.10;97029.00;;;;5074570;28;20442;-76
2024/01/10 06:34:25;;;;;;;28.67;15.77;;;1.10;67.10;-1.00;97039.00;;;;5072336;28;20537;-77
2024/01/10 06:36:52;;;;;;;26.17;14.83;;;1.20;67.30;-1.00;97034.00;;;;5071897;28;20510;-77
2024/01/10 06:39:20;;;;;;;28.07;13.83;;;1.20;68.10;-1.00;97040.00;;;;5072190;28;20494;-76
2024/01/10 06:41:48;;;;;;;25.83;14.17;;;1.20;67.40;-1.00;97033.00;;;;5073812;28;20441;-76
2024/01/10 06:44:17;;;;;;;29.30;14.93;;;1.20;67.30;-1.00;97040.00;;;;5065651;28;20557;-76
2024/01/10 06:46:44;;;;;;;25.43;14.17;;;1.30;67.30;-0.90;97038.00;;;;5074075;28;20439;-77
2024/01/10 06:49:12;;;;;;;28.37;15.37;;;1.30;67.30;-0.90;97053.00;;;;5069708;28;20470;-76
2024/01/10 06:51:40;;;;;;;26.20;14.37;;;1.30;67.50;-0.90;97040.00;;;;5070374;28;20443;-76
2024/01/10 06:54:08;;;;;;;25.37;13.80;;;1.30;67.40;-0.90;97047.00;;;;5073135;28;20804;-76
2024/01/10 06:56:36;;;;;;;26.07;13.97;;;1.30;67.20;-0.90;97047.00;;;;5069006;28;20438;-76
2024/01/10 06:59:03;;;;;;;26.73;14.30;;;1.30;67.10;-0.80;97045.00;;;;5075216;28;20959;-76
2024/01/10 07:01:32;;;;;;;27.03;14.63;;;1.40;67.20;-0.80;97049.00;;;;5068681;28;20534;-76
2024/01/10 07:03:59;;;;;;;26.53;14.40;;;1.40;67.30;-0.80;97057.00;;;;5071020;28;20465;-76
2024/01/10 07:06:26;;;;;;;26.90;13.43;;;1.40;67.30;-0.80;97065.00;;;;5068026;28;20550;-76
2024/01/10 07:08:53;;;;;;;25.63;13.70;;;1.40;67.20;-0.80;97063.00;;;;5074796;28;20544;-77
2024/01/10 07:11:21;;;;;;;24.40;13.83;;;1.40;67.20;-0.80;97053.00;;;;5082879;28;20545;-77
2024/01/10 07:13:49;;;;;;;25.63;13.87;;;1.40;67.10;-0.80;97064.00;;;;5071931;28;20970;-77
2024/01/10 07:16:16;;;;;;;25.83;13.90;;;1.40;67.10;-0.80;97065.00;;;;5071846;28;20791;-77
2024/01/10 07:18:47;;;;;;;28.83;14.30;;;1.40;67.10;-0.80;97062.00;;;;5070998;28;20545;-77
2024/01/10 07:21:14;;;;;;;25.63;14.30;;;1.40;67.30;-0.80;97067.00;;;;5074137;28;20482;-78
2024/01/10 07:23:43;;;;;;;26.90;14.00;;;1.40;67.30;-0.80;97073.00;;;;5070332;28;20500;-78
2024/01/10 07:26:10;;;;;;;27.60;13.93;;;1.40;67.10;-0.80;97069.00;;;;5069190;28;20813;-78
2024/01/10 07:28:38;;;;;;;27.17;14.57;;;1.40;67.30;-0.80;97078.00;;;;5066397;28;20496;-78
2024/01/10 07:31:05;;;;;;;26.17;13.97;;;1.50;67.30;-0.70;97077.00;;;;5061883;28;20931;-78
2024/01/10 07:33:32;;;;;;;26.23;14.17;;;1.50;67.10;-0.70;97085.00;;;;5073105;28;20538;-78
2024/01/10 07:36:02;;;;;;;29.47;14.47;;;1.60;67.30;-0.60;97091.00;;;;5070983;28;20442;-78
2024/01/10 07:38:29;;;;;;;30.10;15.07;;;1.60;67.00;-0.60;97085.00;;;;5070268;28;20501;-78
2024/01/10 07:40:59;;;;;;;29.43;15.40;;;1.60;67.10;-0.60;97093.00;;;;5076913;28;20804;-78
2024/01/10 07:43:26;;;;;;;29.30;17.13;;;1.70;67.10;-0.60;97099.00;;;;5075060;28;20945;-78
2024/01/10 07:45:54;;;;;;;26.93;14.40;;;1.70;67.10;-0.60;97100.00;;;;5081054;28;20480;-78
2024/01/10 07:48:21;;;;;;;24.53;13.37;;;1.70;66.80;-0.50;97098.00;;;;5074580;28;20485;-78
2024/01/10 07:50:49;;;;;;;29.27;14.77;;;1.90;67.00;-0.50;97106.00;;;;5069163;28;20537;-79
2024/01/10 07:53:17;;;;;;;30.37;15.80;;;1.80;67.10;-0.40;97116.00;;;;5070335;28;20485;-78
2024/01/10 07:55:44;;;;;;;28.13;14.83;;;1.80;67.00;-0.40;97118.00;;;;5074165;28;20489;-79
2024/01/10 07:58:12;;;;;;;32.50;16.33;;;1.80;67.00;-0.40;97109.00;;;;5080474;28;20507;-78
2024/01/10 08:00:39;;;;;;;31.13;15.10;;;1.90;67.00;-0.40;97107.00;;;;5072312;28;20450;-78
2024/01/10 08:03:06;;;;;;;30.73;15.73;;;1.90;66.90;-0.30;97113.00;;;;5077496;28;20722;-78
2024/01/10 08:05:33;;;;;;;29.73;14.83;;;1.90;67.10;-0.30;97114.00;;;;5091534;28;20473;-78
2024/01/10 08:08:00;;;;;;;30.37;15.80;;;2.00;67.20;-0.20;97111.00;;;;5089161;28;20446;-78
2024/01/10 08:10:29;;;;;;;30.23;15.43;;;2.00;67.00;-0.20;97115.00;;;;5078958;28;20446;-77
2024/01/10 08:12:57;;;;;;;30.33;15.40;;;2.00;66.90;-0.20;97121.00;;;;5093466;28;20445;-78
2024/01/10 08:15:24;;;;;;;29.43;15.80;;;2.00;66.90;-0.10;97129.00;;;;5080966;28;20450;-78
2024/01/10 08:17:52;;;;;;;32.73;16.07;;;2.00;66.90;0.00;97123.00;;;;5087154;28;20461;-79
2024/01/10 08:20:20;;;;;;;31.67;16.33;;;2.10;67.00;0.00;97111.00;;;;5076346;28;20473;-79
2024/01/10 08:22:48;;;;;;;33.10;15.83;;;2.20;67.10;0.10;97119.00;;;;5081884;28;20429;-78
2024/01/10 08:25:18;;;;;;;31.13;14.83;;;2.20;67.10;0.10;97119.00;;;;5081629;28;20848;-78
2024/01/10 08:27:47;;;;;;;31.33;16.13;;;2.20;67.00;0.20;97117.00;;;;5074442;28;20454;-79
2024/01/10 08:30:14;;;;;;;30.93;15.90;;;2.30;66.90;0.20;97120.00;;;;5073547;28;20497;-79
2024/01/10 08:32:41;;;;;;;32.27;16.60;;;2.30;66.80;0.20;97117.00;;;;5074286;28;20462;-78
2024/01/10 08:35:09;;;;;;;30.53;15.97;;;2.40;66.80;0.10;97126.00;;;;5084422;28;20446;-78
2024/01/10 08:37:37;;;;;;;29.07;14.97;;;2.40;66.40;0.10;97115.00;;;;5077802;28;20448;-78
2024/01/10 08:40:10;;;;;;;32.07;15.87;;;2.40;66.30;0.10;97118.00;;;;5076670;28;21034;-79
2024/01/10 08:42:37;;;;;;;33.47;17.13;;;2.40;66.10;0.00;97112.00;;;;5073435;28;20458;-78
2024/01/10 08:45:09;;;;;;;34.80;17.63;;;2.40;65.90;0.00;97117.00;;;;5071565;28;20540;-79
2024/01/10 08:47:36;;;;;;;29.43;15.93;;;2.40;65.90;0.00;97108.00;;;;5078255;28;20461;-78
2024/01/10 08:50:08;;;;;;;31.77;16.17;;;2.30;66.00;0.00;97121.00;;;;5074126;28;20543;-78
2024/01/10 08:52:37;;;;;;;33.30;17.67;;;2.40;66.10;0.00;97119.00;;;;5075058;28;20461;-78
2024/01/10 08:55:06;;;;;;;30.37;15.47;;;2.30;65.90;0.00;97118.00;;;;5070875;28;20532;-78
2024/01/10 08:57:33;;;;;;;31.70;16.10;;;2.30;66.10;0.00;97115.00;;;;5070984;28;20509;-78
2024/01/10 09:00:00;;;;;;;32.83;16.27;;;2.30;66.20;0.00;97116.00;;;;5071084;28;20999;-77
2024/01/10 09:02:29;;;;;;;34.40;16.07;;;2.30;67.00;0.10;97127.00;;;;5070977;28;20446;-76
2024/01/10 09:04:56;;;;;;;32.87;17.03;;;2.30;66.40;0.10;97126.00;;;;5072968;28;20556;-77
2024/01/10 09:07:23;;;;;;;29.63;16.00;;;2.40;66.70;0.20;97123.00;;;;5073310;28;20834;-77
2024/01/10 09:09:52;;;;;;;32.10;16.10;;;2.40;66.70;0.30;97130.00;;;;5072053;28;20486;-77
2024/01/10 09:12:19;;;;;;;33.87;17.57;;;2.40;66.70;0.30;97124.00;;;;5072755;28;20783;-77
2024/01/10 09:14:47;;;;;;;33.57;16.80;;;2.50;67.50;0.30;97137.00;;;;5071472;28;20885;-77
2024/01/10 09:17:14;;;;;;;33.17;16.90;;;2.50;66.70;0.30;97142.00;;;;5072583;28;20521;-77
2024/01/10 09:19:43;;;;;;;34.57;16.47;;;2.50;66.40;0.30;97143.00;;;;5071193;28;20454;-77
2024/01/10 09:22:10;;;;;;;32.47;15.90;;;2.60;66.30;0.30;97145.00;;;;5071415;28;20466;-77
2024/01/10 09:24:37;;;;;;;32.63;16.43;;;2.60;66.70;0.30;97152.00;;;;5082711;28;20570;-77
2024/01/10 09:27:04;;;;;;;32.63;16.37;;;2.60;66.30;0.40;97143.00;;;;5070730;28;20461;-77
2024/01/10 09:29:32;;;;;;;35.30;16.47;;;2.60;66.20;0.30;97147.00;;;;5072576;28;20545;-76
2024/01/10 09:31:59;;;;;;;31.30;15.63;;;2.60;66.10;0.40;97145.00;;;;5071784;28;20434;-76
2024/01/10 09:34:26;;;;;;;34.07;16.97;;;2.60;66.30;0.40;97151.00;;;;5071599;28;20442;-77
2024/01/10 09:36:55;;;;;;;34.33;17.07;;;2.70;66.50;0.40;97150.00;;;;5072230;28;20521;-77
2024/01/10 09:39:22;;;;;;;33.87;16.57;;;2.70;66.60;0.50;97147.00;;;;5071600;28;20496;-77
2024/01/10 09:41:50;;;;;;;32.90;16.57;;;2.70;66.50;0.50;97148.00;;;;5071508;28;20466;-77
2024/01/10 09:44:20;;;;;;;33.37;16.77;;;2.70;66.60;0.60;97145.00;;;;5071456;28;20462;-77
2024/01/10 09:46:53;;;;;;;31.13;17.07;;;2.80;66.60;0.60;97155.00;;;;5070739;28;20578;-77
2024/01/10 09:49:22;;;;;;;33.67;17.37;;;2.80;66.40;0.60;97147.00;;;;5068628;28;20871;-77
2024/01/10 09:51:50;;;;;;;33.13;16.07;;;2.80;66.30;0.60;97148.00;;;;5064698;28;20482;-77
2024/01/10 09:54:21;;;;;;;34.47;18.00;;;2.90;66.00;0.60;97148.00;;;;5068407;28;20954;-77
2024/01/10 09:56:49;;;;;;;34.70;16.57;;;2.90;65.90;0.60;97150.00;;;;5068879;28;20466;-77
2024/01/10 09:59:16;;;;;;;31.90;16.17;;;2.90;65.70;0.60;97142.00;;;;5070321;28;20497;-77
2024/01/10 10:01:44;;;;;;;36.50;16.97;;;2.90;65.70;0.60;97154.00;;;;5071197;28;20965;-77
2024/01/10 10:04:16;;;;;;;30.50;16.10;;;2.90;65.80;0.70;97150.00;;;;5071233;28;20477;-76
2024/01/10 10:06:45;;;;;;;32.40;15.90;;;2.90;65.90;0.70;97157.00;;;;5069930;28;20446;-77
2024/01/10 10:09:13;;;;;;;34.67;17.27;;;3.00;66.20;0.80;97154.00;;;;5071517;28;20512;-77
2024/01/10 10:11:43;;;;;;;34.07;16.50;;;3.00;66.40;0.80;97157.00;;;;5071474;28;20487;-77
2024/01/10 10:14:16;;;;;;;32.13;17.23;;;3.00;66.40;0.90;97159.00;;;;5071331;28;20446;-77
2024/01/10 10:16:43;;;;;;;30.57;16.60;;;3.10;66.40;1.00;97160.00;;;;5071516;28;20521;-77
2024/01/10 10:19:12;;;;;;;35.47;17.17;;;3.10;66.40;1.00;97159.00;;;;5071267;28;20462;-77
2024/01/10 10:21:40;;;;;;;36.00;16.93;;;3.10;66.30;1.10;97155.00;;;;5071471;28;20525;-77
2024/01/10 10:24:09;;;;;;;33.50;17.03;;;3.20;66.30;1.10;97159.00;;;;5080639;28;20437;-77
2024/01/10 10:26:37;;;;;;;35.43;17.30;;;3.20;66.20;1.10;97165.00;;;;5070157;28;20454;-77
2024/01/10 10:29:05;;;;;;;35.80;16.33;;;3.30;66.10;1.10;97162.00;;;;5069923;28;21056;-77
2024/01/10 10:31:33;;;;;;;33.63;17.10;;;3.40;65.70;1.10;97160.00;;;;5069400;28;20434;-77
2024/01/10 10:34:02;;;;;;;32.17;16.10;;;3.30;65.60;1.20;97158.00;;;;5069943;28;20527;-76
2024/01/10 10:36:32;;;;;;;32.53;16.20;;;3.40;65.70;1.20;97159.00;;;;5062937;28;20942;-77
2024/01/10 10:39:03;;;;;;;37.37;17.63;;;3.40;65.40;1.20;97162.00;;;;5070941;28;20545;-77
2024/01/10 10:41:33;;;;;;;34.80;17.13;;;3.40;65.50;1.20;97166.00;;;;5061964;28;20446;-77
2024/01/10 10:44:01;;;;;;;35.03;16.90;;;3.40;65.70;1.30;97159.00;;;;5069680;28;20470;-77
2024/01/10 10:46:33;;;;;;;36.53;16.80;;;3.50;65.80;1.30;97161.00;;;;5069174;28;21009;-77
2024/01/10 10:49:11;;;;;;;35.40;17.57;;;3.50;65.90;1.40;97166.00;;;;5064625;28;20535;-77